createdAt,value
2019-04-14T00:01:15.770Z,85.12
2019-04-14T00:03:50.313Z,85.03
2019-04-14T00:06:20.661Z,85.20
2019-04-14T00:08:50.224Z,85.30
2019-04-14T00:11:19.481Z,85.15
2019-04-14T00:13:48.791Z,85.09
2019-04-14T00:16:18.493Z,85.20
2019-04-14T00:18:48.974Z,85.18
2019-04-14T00:21:19.365Z,85.08
2019-04-14T00:23:48.662Z,85.03
2019-04-14T00:26:27.353Z,85.15
2019-04-14T00:28:57.787Z,85.27
2019-04-14T00:31:28.558Z,85.33
2019-04-14T00:34:00.747Z,85.21
2019-04-14T00:36:43.807Z,85.19
2019-04-14T00:39:20.508Z,85.07
2019-04-14T00:42:10.187Z,85.15
2019-04-14T00:44:58.406Z,84.93
2019-04-14T00:47:35.406Z,84.88
2019-04-14T00:50:05.966Z,84.69
2019-04-14T00:52:37.251Z,84.86
2019-04-14T00:55:07.606Z,84.62
2019-04-14T00:57:37.663Z,84.83
2019-04-14T01:00:08.244Z,84.57
2019-04-14T01:02:38.531Z,84.50
2019-04-14T01:05:09.093Z,84.54
2019-04-14T01:07:39.347Z,84.53
2019-04-14T01:10:08.908Z,84.36
2019-04-14T01:12:38.746Z,84.16
2019-04-14T01:15:09.216Z,83.98
2019-04-14T01:17:39.525Z,83.93
2019-04-14T01:20:10.005Z,84.12
2019-04-14T01:22:40.187Z,84.06
2019-04-14T01:25:10.675Z,84.09
2019-04-14T01:27:40.631Z,84.02
2019-04-14T01:30:11.077Z,83.82
2019-04-14T01:32:42.168Z,83.70
2019-04-14T01:35:11.758Z,83.70
2019-04-14T01:37:41.908Z,83.45
2019-04-14T01:40:12.102Z,83.48
2019-04-14T01:42:42.069Z,83.51
2019-04-14T01:45:12.763Z,83.46
2019-04-14T01:47:42.113Z,83.41
2019-04-14T01:50:12.739Z,83.54
2019-04-14T01:53:01.113Z,83.55
2019-04-14T01:55:41.634Z,83.81
2019-04-14T01:58:20.679Z,83.44
2019-04-14T02:01:10.518Z,83.34
2019-04-14T02:03:40.962Z,83.10
2019-04-14T02:06:11.443Z,83.25
2019-04-14T02:08:41.530Z,83.32
2019-04-14T02:11:11.623Z,83.62
2019-04-14T05:22:55.047Z,100.00
2019-04-14T07:41:35.051Z,71.07
2019-04-14T07:44:35.148Z,71.14
2019-04-14T07:47:35.550Z,70.97
2019-04-14T07:50:40.829Z,70.06
2019-04-14T07:53:27.548Z,70.06
2019-04-14T07:56:27.846Z,69.01
2019-04-14T07:59:25.327Z,68.18
2019-04-14T08:02:19.166Z,69.10
2019-04-14T08:04:56.791Z,68.31
2019-04-14T08:07:26.882Z,68.58
2019-04-14T08:09:56.088Z,69.02
2019-04-14T08:12:25.262Z,68.79
2019-04-14T08:14:54.661Z,68.84
2019-04-14T08:17:23.811Z,68.19
2019-04-14T08:19:52.976Z,66.92
2019-04-14T08:22:22.309Z,67.23
2019-04-14T08:24:51.603Z,66.45
2019-04-14T08:27:20.861Z,67.87
2019-04-14T08:29:50.424Z,66.55
2019-04-14T08:32:19.646Z,66.62
2019-04-14T08:34:48.826Z,67.40
2019-04-14T08:37:18.065Z,66.83
2019-04-14T08:39:47.251Z,65.54
2019-04-14T08:42:33.608Z,67.00
2019-04-14T08:45:10.747Z,65.82
2019-04-14T08:47:51.723Z,64.90
2019-04-14T08:50:39.592Z,64.85
2019-04-14T08:53:30.165Z,64.27
2019-04-14T08:56:18.449Z,63.58
2019-04-14T08:59:05.356Z,63.75
2019-04-14T09:01:53.821Z,63.35
2019-04-14T09:04:41.987Z,64.17
2019-04-14T09:07:24.695Z,63.32
2019-04-14T09:09:57.217Z,63.20
2019-04-14T09:12:29.866Z,63.00
2019-04-14T09:14:59.153Z,62.74
2019-04-14T09:17:30.188Z,61.72
2019-04-14T09:19:59.400Z,61.81
2019-04-14T09:22:28.725Z,62.00
2019-04-14T09:24:58.046Z,62.55
2019-04-14T09:27:27.210Z,61.31
2019-04-14T09:29:56.626Z,60.63
2019-04-14T09:32:26.946Z,59.69
2019-04-14T09:34:56.261Z,60.03
2019-04-14T09:37:25.536Z,59.13
2019-04-14T09:39:54.954Z,59.63
2019-04-14T09:42:24.261Z,58.66
2019-04-14T09:44:53.686Z,58.68
2019-04-14T09:47:24.037Z,58.82
2019-04-14T09:49:53.321Z,57.67
2019-04-14T09:52:22.613Z,57.36
2019-04-14T09:54:51.835Z,58.08
2019-04-14T09:57:21.000Z,56.07
2019-04-14T09:59:50.283Z,56.39
2019-04-14T10:02:20.804Z,56.82
2019-04-14T10:04:49.967Z,55.37
2019-04-14T10:07:19.140Z,53.26
2019-04-14T10:09:48.417Z,54.87
2019-04-14T10:12:17.584Z,53.57
2019-04-14T10:14:46.767Z,52.58
2019-04-14T10:17:15.936Z,53.44
2019-04-14T10:19:45.141Z,54.37
2019-04-14T10:22:14.360Z,53.45
2019-04-14T10:24:43.567Z,51.89
2019-04-14T10:27:12.724Z,53.05
2019-04-14T10:29:42.299Z,52.01
2019-04-14T10:32:11.463Z,51.53
2019-04-14T10:34:40.803Z,51.56
2019-04-14T10:37:10.104Z,51.29
2019-04-14T10:39:39.457Z,50.96
2019-04-14T10:42:08.644Z,50.76
2019-04-14T10:44:37.951Z,51.43
2019-04-14T10:47:07.239Z,50.74
2019-04-14T10:49:36.626Z,49.44
2019-04-14T10:52:05.996Z,48.64
2019-04-14T10:54:35.201Z,48.75
2019-04-14T10:57:04.430Z,48.83
2019-04-14T10:59:34.806Z,50.20
2019-04-14T11:02:05.781Z,49.10
2019-04-14T11:04:35.352Z,49.21
2019-04-14T11:07:10.213Z,50.18
2019-04-14T11:09:39.409Z,49.59
2019-04-14T11:12:08.701Z,49.45
2019-04-14T11:14:37.848Z,47.05
2019-04-14T11:17:07.195Z,48.74
2019-04-14T11:19:36.383Z,48.40
2019-04-14T11:22:05.692Z,48.60
2019-04-14T11:24:35.884Z,48.02
2019-04-14T11:27:05.241Z,47.24
2019-04-14T11:29:34.730Z,45.54
2019-04-14T11:32:28.986Z,44.54
2019-04-14T11:35:16.444Z,45.50
2019-04-14T11:38:07.503Z,45.05
2019-04-14T11:40:41.601Z,43.83
2019-04-14T11:43:12.380Z,43.81
2019-04-14T11:45:42.681Z,44.52
2019-04-14T11:48:11.918Z,44.30
2019-04-14T11:50:41.141Z,45.22
2019-04-14T11:53:10.410Z,44.44
2019-04-14T11:55:40.795Z,43.62
2019-04-14T11:58:09.944Z,44.21
2019-04-14T12:01:07.267Z,44.37
2019-04-14T12:03:54.345Z,43.49
2019-04-14T12:06:42.537Z,41.84
2019-04-14T12:09:17.494Z,42.13
2019-04-14T12:11:48.570Z,43.39
2019-04-14T12:14:17.732Z,41.88
2019-04-14T12:16:47.017Z,41.17
2019-04-14T12:19:16.217Z,41.99
2019-04-14T12:21:45.531Z,42.63
2019-04-14T12:24:14.798Z,43.42
2019-04-14T12:26:43.999Z,42.67
2019-04-14T12:29:14.137Z,44.03
2019-04-14T12:31:44.092Z,43.15
2019-04-14T12:34:13.566Z,42.51
2019-04-14T12:36:42.727Z,42.10
2019-04-14T12:39:21.219Z,41.64
2019-04-14T12:41:55.114Z,41.09
2019-04-14T12:44:49.328Z,42.83
2019-04-14T12:47:39.706Z,43.87
2019-04-14T12:50:10.182Z,42.46
2019-04-14T12:52:39.543Z,43.26
2019-04-14T12:55:08.819Z,42.88
2019-04-14T12:57:52.104Z,42.00
2019-04-14T13:00:35.397Z,42.42
2019-04-14T13:03:06.645Z,42.95
2019-04-14T13:05:35.826Z,43.23
2019-04-14T13:08:05.146Z,41.92
2019-04-14T13:10:34.348Z,42.47
2019-04-14T13:13:03.522Z,41.59
2019-04-14T13:15:32.787Z,38.68
2019-04-14T13:18:03.129Z,37.05
2019-04-14T13:20:32.356Z,36.02
2019-04-14T13:23:01.524Z,36.35
2019-04-14T13:25:30.757Z,40.06
2019-04-14T13:27:59.933Z,40.37
2019-04-14T13:30:37.398Z,42.35
2019-04-14T13:33:06.752Z,42.36
2019-04-14T13:35:35.938Z,42.05
2019-04-14T13:38:05.434Z,43.37
2019-04-14T13:40:35.807Z,41.77
2019-04-14T13:43:05.021Z,39.77
2019-04-14T13:45:34.327Z,42.20
2019-04-14T13:48:03.617Z,42.68
2019-04-14T13:50:31.842Z,42.89
2019-04-14T13:53:00.177Z,42.25
2019-04-14T13:55:28.414Z,40.57
2019-04-14T13:57:57.655Z,39.95
2019-04-14T14:00:27.045Z,36.81
2019-04-14T14:02:56.291Z,36.20
2019-04-14T14:05:25.524Z,34.44
2019-04-14T14:07:55.081Z,36.60
2019-04-14T14:10:24.312Z,41.01
2019-04-14T14:12:58.515Z,41.34
2019-04-14T14:15:43.768Z,41.37
2019-04-14T14:18:33.307Z,43.00
2019-04-14T14:21:36.928Z,42.89
2019-04-14T14:24:18.278Z,42.94
2019-04-14T14:26:48.536Z,43.10
2019-04-14T14:29:17.755Z,40.42
2019-04-14T14:31:46.947Z,39.13
2019-04-14T14:34:16.127Z,39.31
2019-04-14T14:36:45.332Z,40.16
2019-04-14T14:39:17.983Z,41.72
2019-04-14T14:41:47.173Z,39.61
2019-04-14T14:44:16.384Z,39.99
2019-04-14T14:47:13.432Z,40.40
2019-04-14T14:50:02.605Z,40.57
2019-04-14T14:52:32.382Z,39.45
2019-04-14T14:55:02.195Z,39.18
2019-04-14T14:57:31.646Z,41.48
2019-04-14T15:00:00.992Z,40.40
2019-04-14T15:02:30.325Z,41.36
2019-04-14T15:04:59.618Z,41.56
2019-04-14T15:07:29.053Z,43.22
2019-04-14T15:10:01.224Z,42.28
2019-04-14T15:12:30.572Z,43.28
2019-04-14T15:15:00.065Z,42.71
2019-04-14T15:17:29.301Z,44.17
2019-04-14T15:19:58.495Z,42.89
2019-04-14T15:22:27.722Z,44.16
2019-04-14T15:24:56.891Z,44.66
2019-04-14T15:27:26.144Z,44.77
2019-04-14T15:29:55.380Z,45.37
2019-04-14T15:32:24.697Z,45.33
2019-04-14T15:34:53.974Z,43.94
2019-04-14T15:37:24.209Z,44.93
2019-04-14T15:39:53.658Z,44.89
2019-04-14T15:42:23.003Z,45.56
2019-04-14T15:44:52.297Z,45.50
2019-04-14T15:47:21.703Z,45.36
2019-04-14T15:49:51.249Z,46.25
2019-04-14T15:52:20.649Z,45.59
2019-04-14T15:54:49.821Z,45.43
2019-04-14T15:57:36.328Z,45.81
2019-04-14T16:00:24.994Z,46.17
2019-04-14T16:03:16.172Z,46.27
2019-04-14T16:06:08.616Z,47.20
2019-04-14T16:09:08.777Z,46.41
2019-04-14T16:11:55.118Z,46.62
2019-04-14T16:14:43.394Z,46.99
2019-04-14T16:17:34.578Z,46.96
2019-04-14T16:20:13.767Z,46.82
2019-04-14T16:22:43.089Z,47.34
2019-04-14T16:25:12.308Z,47.93
2019-04-14T16:27:53.125Z,47.71
2019-04-14T16:30:47.166Z,47.54
2019-04-14T16:33:33.410Z,47.83
2019-04-14T16:36:03.080Z,47.66
2019-04-14T16:38:32.453Z,49.54
2019-04-14T16:41:01.793Z,49.45
2019-04-14T16:43:31.027Z,50.32
2019-04-14T16:46:00.308Z,49.79
2019-04-14T16:48:31.782Z,50.55
2019-04-14T16:51:02.312Z,52.36
2019-04-14T16:53:36.901Z,52.73
2019-04-14T16:56:16.952Z,52.46
2019-04-14T16:58:54.885Z,53.38
2019-04-14T17:01:28.645Z,52.26
2019-04-14T17:03:58.127Z,52.53
2019-04-14T17:06:27.559Z,52.79
2019-04-14T17:08:56.920Z,52.93
2019-04-14T17:11:26.365Z,53.19
2019-04-14T17:14:14.649Z,53.07
2019-04-14T17:17:02.869Z,52.70
2019-04-14T17:19:59.392Z,53.24
2019-04-14T17:22:46.675Z,53.38
2019-04-14T17:25:35.082Z,54.38
2019-04-14T17:28:23.312Z,53.79
2019-04-14T17:30:59.999Z,54.00
2019-04-14T17:33:51.122Z,54.10
2019-04-14T17:36:45.460Z,54.39
2019-04-14T17:39:44.944Z,54.82
2019-04-14T17:42:27.889Z,54.39
2019-04-14T17:45:14.979Z,54.69
2019-04-14T17:48:02.323Z,55.32
2019-04-14T17:50:41.979Z,55.29
2019-04-14T17:53:21.301Z,55.94
2019-04-14T17:56:09.585Z,55.59
2019-04-14T17:59:09.995Z,55.73
2019-04-14T18:01:52.609Z,56.29
2019-04-14T18:04:43.826Z,56.74
2019-04-14T18:07:34.842Z,55.73
2019-04-14T18:10:17.843Z,57.04
2019-04-14T18:13:03.150Z,57.06
2019-04-14T18:16:09.741Z,57.55
2019-04-14T18:19:03.475Z,58.04
2019-04-14T18:21:32.965Z,58.06
2019-04-14T18:24:02.391Z,58.36
2019-04-14T18:26:32.300Z,57.57
2019-04-14T18:29:19.861Z,58.16
2019-04-14T18:32:04.277Z,58.19
2019-04-14T18:34:39.921Z,57.79
2019-04-14T18:37:41.544Z,57.87
2019-04-14T18:40:24.991Z,58.63
2019-04-14T18:43:02.714Z,59.09
2019-04-14T18:45:42.772Z,59.31
2019-04-14T18:48:24.627Z,59.75
2019-04-14T18:51:09.238Z,60.13
2019-04-14T18:53:58.302Z,60.46
2019-04-14T18:56:45.295Z,60.48
2019-04-14T18:59:46.027Z,60.79
2019-04-14T19:02:18.054Z,60.52
2019-04-14T19:04:48.116Z,61.13
2019-04-14T19:07:17.357Z,61.32
2019-04-14T19:09:46.908Z,61.31
2019-04-14T19:12:33.844Z,61.54
2019-04-14T19:15:15.862Z,62.15
2019-04-14T19:18:03.048Z,62.21
2019-04-14T19:20:32.472Z,62.39
2019-04-14T19:23:02.073Z,63.02
2019-04-14T19:25:32.888Z,63.99
2019-04-14T19:28:02.327Z,64.11
2019-04-14T19:30:31.826Z,64.29
2019-04-14T19:33:02.619Z,63.96
2019-04-14T19:35:32.690Z,63.93
2019-04-14T19:38:03.887Z,64.43
2019-04-14T19:40:35.540Z,64.38
2019-04-14T19:43:05.748Z,64.28
2019-04-14T19:45:37.396Z,64.79
2019-04-14T19:48:08.721Z,65.19
2019-04-14T19:50:38.202Z,64.82
2019-04-14T19:53:07.548Z,65.05
2019-04-14T19:55:37.387Z,65.71
2019-04-14T19:58:06.795Z,65.17
2019-04-14T20:00:37.477Z,65.33
2019-04-14T20:03:07.142Z,65.96
2019-04-14T20:05:35.412Z,65.97
2019-04-14T20:08:03.831Z,66.44
2019-04-14T20:10:32.386Z,66.62
2019-04-14T20:13:00.967Z,66.62
2019-04-14T20:15:35.073Z,67.06
2019-04-14T20:18:14.598Z,67.40
2019-04-14T20:21:05.073Z,67.05
2019-04-14T20:23:44.796Z,67.19
2019-04-14T20:26:22.894Z,67.33
2019-04-14T20:28:58.613Z,67.60
2019-04-14T20:31:39.049Z,67.73
2019-04-14T20:34:07.296Z,68.02
2019-04-14T20:36:36.702Z,67.95
2019-04-14T20:39:07.520Z,68.25
2019-04-14T20:41:36.048Z,68.49
2019-04-14T20:44:04.421Z,68.49
2019-04-14T20:46:32.733Z,68.39
2019-04-14T20:49:02.198Z,68.23
2019-04-14T20:51:30.438Z,68.51
2019-04-14T20:53:58.717Z,68.74
2019-04-14T20:56:27.003Z,69.03
2019-04-14T20:58:55.523Z,68.64
2019-04-14T21:01:25.235Z,68.91
2019-04-14T21:04:07.325Z,68.90
2019-04-14T21:06:45.733Z,68.55
2019-04-14T21:09:17.414Z,68.85
2019-04-14T21:12:02.751Z,69.41
2019-04-14T21:14:49.927Z,69.33
2019-04-14T21:17:30.468Z,68.93
2019-04-14T21:20:11.134Z,69.00
2019-04-14T21:22:57.163Z,68.97
2019-04-14T21:26:00.211Z,69.38
2019-04-14T21:28:31.820Z,69.37
2019-04-14T21:31:27.831Z,69.48
2019-04-14T21:34:06.860Z,69.42
2019-04-14T21:36:44.232Z,69.65
2019-04-14T21:39:30.567Z,69.60
2019-04-14T21:41:58.820Z,69.87
2019-04-14T21:44:27.147Z,69.31
2019-04-14T21:46:55.453Z,69.84
2019-04-14T21:49:23.753Z,69.91
2019-04-14T21:52:11.758Z,69.83
2019-04-14T21:54:41.431Z,69.41
2019-04-14T21:57:28.624Z,70.09
2019-04-14T22:00:14.608Z,70.17
2019-04-14T22:03:00.534Z,70.20
2019-04-14T22:05:42.259Z,70.42
2019-04-14T22:08:29.469Z,70.47
2019-04-14T22:11:01.033Z,70.48
2019-04-14T22:13:29.289Z,70.43
2019-04-14T22:15:57.510Z,70.32
2019-04-14T22:18:25.779Z,70.66
2019-04-14T22:20:53.995Z,70.39
2019-04-14T22:23:22.229Z,70.23
2019-04-14T22:25:50.576Z,70.64
2019-04-14T22:28:18.822Z,70.44
2019-04-14T22:30:47.139Z,70.55
2019-04-14T22:33:15.294Z,71.01
2019-04-14T22:35:43.531Z,70.83
2019-04-14T22:38:11.788Z,70.59
2019-04-14T22:40:40.460Z,70.78
2019-04-14T22:43:08.825Z,71.39
2019-04-14T22:45:38.161Z,71.38
2019-04-14T22:48:06.462Z,71.56
2019-04-14T22:50:34.690Z,71.49
2019-04-14T22:53:03.043Z,71.71
2019-04-14T22:55:31.294Z,71.77
2019-04-14T22:57:59.506Z,71.86
2019-04-14T23:00:49.698Z,71.55
2019-04-14T23:03:35.806Z,71.65
2019-04-14T23:06:10.909Z,72.13
2019-04-14T23:09:07.162Z,72.23
2019-04-14T23:12:03.746Z,72.17
2019-04-14T23:14:49.492Z,72.54
2019-04-14T23:17:39.751Z,72.75
2019-04-14T23:20:16.678Z,72.23
2019-04-14T23:23:06.740Z,72.56
2019-04-14T23:25:37.189Z,72.75
2019-04-14T23:28:05.462Z,72.80
2019-04-14T23:30:33.804Z,72.91
2019-04-14T23:33:02.153Z,73.10
2019-04-14T23:35:31.940Z,73.11
2019-04-14T23:38:00.144Z,73.63
2019-04-14T23:40:28.460Z,73.68
2019-04-14T23:42:56.908Z,73.44
2019-04-14T23:45:25.199Z,73.60
2019-04-14T23:47:53.410Z,73.73
2019-04-14T23:50:21.624Z,73.66
2019-04-14T23:52:49.917Z,73.92
2019-04-14T23:55:18.189Z,74.13
2019-04-14T23:57:46.396Z,74.04
